sensor_id;sensor_type;location;lat;lon;timestamp;P1;durP1;ratioP1;P2;durP2;ratioP2
29538;SDS011;16482;51.046;4.498;2023-01-25T00:01:01;6.65;;;6.05;;
29538;SDS011;16482;51.046;4.498;2023-01-25T00:03:28;7.20;;;6.53;;
29538;SDS011;16482;51.046;4.498;2023-01-25T00:05:58;6.45;;;5.85;;
29538;SDS011;16482;51.046;4.498;2023-01-25T00:08:27;7.28;;;6.57;;
29538;SDS011;16482;51.046;4.498;2023-01-25T00:11:03;6.95;;;6.28;;
29538;SDS011;16482;51.046;4.498;2023-01-25T00:13:29;6.78;;;6.18;;
29538;SDS011;16482;51.046;4.498;2023-01-25T00:16:01;7.55;;;6.85;;
29538;SDS011;16482;51.046;4.498;2023-01-25T00:18:28;6.82;;;6.22;;
29538;SDS011;16482;51.046;4.498;2023-01-25T00:21:09;6.82;;;6.13;;
29538;SDS011;16482;51.046;4.498;2023-01-25T00:23:36;7.00;;;6.40;;
29538;SDS011;16482;51.046;4.498;2023-01-25T00:26:02;6.85;;;6.25;;
29538;SDS011;16482;51.046;4.498;2023-01-25T00:28:28;7.28;;;6.63;;
29538;SDS011;16482;51.046;4.498;2023-01-25T00:30:58;7.00;;;6.40;;
29538;SDS011;16482;51.046;4.498;2023-01-25T00:39:00;7.32;;;6.63;;
29538;SDS011;16482;51.046;4.498;2023-01-25T00:41:26;7.68;;;6.97;;
29538;SDS011;16482;51.046;4.498;2023-01-25T00:43:52;7.10;;;6.40;;
29538;SDS011;16482;51.046;4.498;2023-01-25T00:46:18;7.00;;;6.30;;
29538;SDS011;16482;51.046;4.498;2023-01-25T00:48:44;7.35;;;6.65;;
29538;SDS011;16482;51.046;4.498;2023-01-25T00:51:10;7.00;;;6.40;;
29538;SDS011;16482;51.046;4.498;2023-01-25T00:53:36;6.75;;;6.15;;
29538;SDS011;16482;51.046;4.498;2023-01-25T00:56:02;6.72;;;6.13;;
29538;SDS011;16482;51.046;4.498;2023-01-25T00:58:28;6.30;;;5.72;;
29538;SDS011;16482;51.046;4.498;2023-01-25T01:01:02;7.15;;;6.45;;
29538;SDS011;16482;51.046;4.498;2023-01-25T01:03:30;6.95;;;6.28;;
29538;SDS011;16482;51.046;4.498;2023-01-25T01:06:00;6.80;;;6.20;;
29538;SDS011;16482;51.046;4.498;2023-01-25T01:08:34;6.85;;;6.25;;
29538;SDS011;16482;51.046;4.498;2023-01-25T01:11:05;7.03;;;6.43;;
29538;SDS011;16482;51.046;4.498;2023-01-25T01:13:32;7.30;;;6.60;;
29538;SDS011;16482;51.046;4.498;2023-01-25T01:16:02;6.70;;;6.10;;
29538;SDS011;16482;51.046;4.498;2023-01-25T01:18:36;7.35;;;6.68;;
29538;SDS011;16482;51.046;4.498;2023-01-25T01:21:04;7.17;;;6.43;;
29538;SDS011;16482;51.046;4.498;2023-01-25T01:23:30;7.00;;;6.38;;
29538;SDS011;16482;51.046;4.498;2023-01-25T01:26:00;7.53;;;6.82;;
29538;SDS011;16482;51.046;4.498;2023-01-25T01:28:27;6.95;;;6.35;;
29538;SDS011;16482;51.046;4.498;2023-01-25T01:31:01;7.50;;;6.70;;
29538;SDS011;16482;51.046;4.498;2023-01-25T01:33:28;6.78;;;6.18;;
29538;SDS011;16482;51.046;4.498;2023-01-25T01:35:57;7.50;;;6.80;;
29538;SDS011;16482;51.046;4.498;2023-01-25T01:38:30;7.10;;;6.40;;
29538;SDS011;16482;51.046;4.498;2023-01-25T01:40:59;7.55;;;6.85;;
29538;SDS011;16482;51.046;4.498;2023-01-25T01:43:31;7.65;;;7.00;;
29538;SDS011;16482;51.046;4.498;2023-01-25T01:46:04;6.93;;;6.22;;
29538;SDS011;16482;51.046;4.498;2023-01-25T01:49:08;7.32;;;6.63;;
29538;SDS011;16482;51.046;4.498;2023-01-25T01:51:51;8.10;;;7.30;;
29538;SDS011;16482;51.046;4.498;2023-01-25T01:54:28;7.03;;;6.43;;
29538;SDS011;16482;51.046;4.498;2023-01-25T01:57:18;6.93;;;6.32;;
29538;SDS011;16482;51.046;4.498;2023-01-25T01:59:50;7.22;;;6.53;;
29538;SDS011;16482;51.046;4.498;2023-01-25T02:02:24;7.00;;;6.40;;
29538;SDS011;16482;51.046;4.498;2023-01-25T02:04:51;7.68;;;6.97;;
29538;SDS011;16482;51.046;4.498;2023-01-25T02:07:22;7.65;;;6.95;;
29538;SDS011;16482;51.046;4.498;2023-01-25T02:09:53;7.63;;;6.93;;
29538;SDS011;16482;51.046;4.498;2023-01-25T02:12:19;7.65;;;6.95;;
29538;SDS011;16482;51.046;4.498;2023-01-25T02:14:48;7.53;;;6.82;;
29538;SDS011;16482;51.046;4.498;2023-01-25T02:17:18;7.05;;;6.45;;
29538;SDS011;16482;51.046;4.498;2023-01-25T02:19:53;8.20;;;7.40;;
29538;SDS011;16482;51.046;4.498;2023-01-25T02:22:29;7.53;;;6.82;;
29538;SDS011;16482;51.046;4.498;2023-01-25T02:25:09;7.85;;;7.15;;
29538;SDS011;16482;51.046;4.498;2023-01-25T02:27:40;8.00;;;7.25;;
29538;SDS011;16482;51.046;4.498;2023-01-25T02:30:10;7.80;;;7.00;;
29538;SDS011;16482;51.046;4.498;2023-01-25T02:32:39;7.95;;;7.25;;
29538;SDS011;16482;51.046;4.498;2023-01-25T02:35:16;7.60;;;6.90;;
29538;SDS011;16482;51.046;4.498;2023-01-25T02:37:45;8.40;;;7.60;;
29538;SDS011;16482;51.046;4.498;2023-01-25T02:40:11;8.55;;;7.20;;
29538;SDS011;16482;51.046;4.498;2023-01-25T02:42:37;7.72;;;7.05;;
29538;SDS011;16482;51.046;4.498;2023-01-25T02:45:08;7.90;;;7.20;;
29538;SDS011;16482;51.046;4.498;2023-01-25T02:47:38;7.95;;;7.25;;
29538;SDS011;16482;51.046;4.498;2023-01-25T02:50:12;7.78;;;7.07;;
29538;SDS011;16482;51.046;4.498;2023-01-25T02:52:40;8.43;;;7.63;;
29538;SDS011;16482;51.046;4.498;2023-01-25T02:55:09;8.10;;;7.40;;
29538;SDS011;16482;51.046;4.498;2023-01-25T02:57:42;8.10;;;7.40;;
29538;SDS011;16482;51.046;4.498;2023-01-25T03:00:08;7.97;;;7.28;;
29538;SDS011;16482;51.046;4.498;2023-01-25T03:02:37;8.23;;;7.53;;
29538;SDS011;16482;51.046;4.498;2023-01-25T03:05:11;7.88;;;7.18;;
29538;SDS011;16482;51.046;4.498;2023-01-25T03:07:40;7.78;;;7.07;;
29538;SDS011;16482;51.046;4.498;2023-01-25T03:10:09;7.07;;;6.47;;
29538;SDS011;16482;51.046;4.498;2023-01-25T03:12:38;8.15;;;7.40;;
29538;SDS011;16482;51.046;4.498;2023-01-25T03:15:13;8.15;;;7.45;;
29538;SDS011;16482;51.046;4.498;2023-01-25T03:17:39;7.90;;;7.20;;
29538;SDS011;16482;51.046;4.498;2023-01-25T03:20:07;8.10;;;7.40;;
29538;SDS011;16482;51.046;4.498;2023-01-25T03:22:39;7.78;;;7.07;;
29538;SDS011;16482;51.046;4.498;2023-01-25T03:25:08;8.70;;;7.90;;
29538;SDS011;16482;51.046;4.498;2023-01-25T03:27:43;8.50;;;7.70;;
29538;SDS011;16482;51.046;4.498;2023-01-25T03:30:09;7.82;;;7.03;;
29538;SDS011;16482;51.046;4.498;2023-01-25T03:32:38;8.63;;;7.82;;
29538;SDS011;16482;51.046;4.498;2023-01-25T03:35:12;8.45;;;7.55;;
29538;SDS011;16482;51.046;4.498;2023-01-25T03:37:38;8.77;;;7.97;;
29538;SDS011;16482;51.046;4.498;2023-01-25T03:40:13;9.00;;;8.10;;
29538;SDS011;16482;51.046;4.498;2023-01-25T03:42:39;8.57;;;7.80;;
29538;SDS011;16482;51.046;4.498;2023-01-25T03:45:13;8.18;;;7.47;;
29538;SDS011;16482;51.046;4.498;2023-01-25T03:47:39;7.85;;;7.15;;
29538;SDS011;16482;51.046;4.498;2023-01-25T03:50:13;8.30;;;7.50;;
29538;SDS011;16482;51.046;4.498;2023-01-25T03:56:08;8.20;;;7.40;;
29538;SDS011;16482;51.046;4.498;2023-01-25T03:58:36;8.70;;;7.90;;
29538;SDS011;16482;51.046;4.498;2023-01-25T04:01:03;8.43;;;7.63;;
29538;SDS011;16482;51.046;4.498;2023-01-25T04:03:31;8.50;;;7.70;;
29538;SDS011;16482;51.046;4.498;2023-01-25T04:06:01;9.20;;;8.40;;
29538;SDS011;16482;51.046;4.498;2023-01-25T04:08:30;8.05;;;7.25;;
29538;SDS011;16482;51.046;4.498;2023-01-25T04:10:59;8.57;;;7.78;;
29538;SDS011;16482;51.046;4.498;2023-01-25T04:13:29;8.88;;;7.97;;
29538;SDS011;16482;51.046;4.498;2023-01-25T04:15:59;8.80;;;7.93;;
29538;SDS011;16482;51.046;4.498;2023-01-25T04:18:34;7.93;;;7.22;;
29538;SDS011;16482;51.046;4.498;2023-01-25T04:21:00;8.65;;;7.85;;
29538;SDS011;16482;51.046;4.498;2023-01-25T04:23:28;8.50;;;7.70;;
29538;SDS011;16482;51.046;4.498;2023-01-25T04:26:02;8.75;;;7.88;;
29538;SDS011;16482;51.046;4.498;2023-01-25T04:28:32;7.90;;;7.15;;
29538;SDS011;16482;51.046;4.498;2023-01-25T04:30:59;8.75;;;7.93;;
29538;SDS011;16482;51.046;4.498;2023-01-25T04:33:30;8.40;;;7.60;;
29538;SDS011;16482;51.046;4.498;2023-01-25T04:35:59;8.30;;;7.60;;
29538;SDS011;16482;51.046;4.498;2023-01-25T04:38:25;8.68;;;7.88;;
29538;SDS011;16482;51.046;4.498;2023-01-25T04:40:59;8.20;;;7.43;;
29538;SDS011;16482;51.046;4.498;2023-01-25T04:43:32;8.38;;;7.63;;
29538;SDS011;16482;51.046;4.498;2023-01-25T04:46:01;8.70;;;7.90;;
29538;SDS011;16482;51.046;4.498;2023-01-25T04:48:31;8.13;;;7.35;;
29538;SDS011;16482;51.046;4.498;2023-01-25T04:51:00;8.07;;;7.35;;
29538;SDS011;16482;51.046;4.498;2023-01-25T04:53:28;8.82;;;8.02;;
29538;SDS011;16482;51.046;4.498;2023-01-25T04:56:02;8.60;;;7.85;;
29538;SDS011;16482;51.046;4.498;2023-01-25T04:58:28;8.38;;;7.57;;
29538;SDS011;16482;51.046;4.498;2023-01-25T05:01:01;8.43;;;7.63;;
29538;SDS011;16482;51.046;4.498;2023-01-25T05:03:28;7.65;;;7.03;;
29538;SDS011;16482;51.046;4.498;2023-01-25T05:06:02;7.50;;;6.80;;
29538;SDS011;16482;51.046;4.498;2023-01-25T05:08:30;7.63;;;6.82;;
29538;SDS011;16482;51.046;4.498;2023-01-25T05:10:59;7.03;;;6.43;;
29538;SDS011;16482;51.046;4.498;2023-01-25T05:13:34;6.88;;;6.28;;
29538;SDS011;16482;51.046;4.498;2023-01-25T05:16:00;6.18;;;5.68;;
29538;SDS011;16482;51.046;4.498;2023-01-25T05:18:28;6.00;;;5.45;;
29538;SDS011;16482;51.046;4.498;2023-01-25T05:21:01;6.38;;;5.88;;
29538;SDS011;16482;51.046;4.498;2023-01-25T05:23:27;6.40;;;5.80;;
29538;SDS011;16482;51.046;4.498;2023-01-25T05:26:02;6.80;;;6.20;;
29538;SDS011;16482;51.046;4.498;2023-01-25T05:28:46;6.35;;;5.63;;
29538;SDS011;16482;51.046;4.498;2023-01-25T05:31:12;5.82;;;5.32;;
29538;SDS011;16482;51.046;4.498;2023-01-25T05:33:38;6.10;;;5.50;;
29538;SDS011;16482;51.046;4.498;2023-01-25T05:36:04;5.60;;;5.10;;
29538;SDS011;16482;51.046;4.498;2023-01-25T05:38:30;6.60;;;6.00;;
29538;SDS011;16482;51.046;4.498;2023-01-25T05:40:59;5.50;;;5.00;;
29538;SDS011;16482;51.046;4.498;2023-01-25T05:43:27;5.30;;;4.88;;
29538;SDS011;16482;51.046;4.498;2023-01-25T05:46:01;5.72;;;5.22;;
29538;SDS011;16482;51.046;4.498;2023-01-25T05:48:29;6.30;;;5.70;;
29538;SDS011;16482;51.046;4.498;2023-01-25T05:51:00;6.28;;;5.68;;
29538;SDS011;16482;51.046;4.498;2023-01-25T05:53:26;5.75;;;5.25;;
29538;SDS011;16482;51.046;4.498;2023-01-25T05:56:02;5.55;;;5.05;;
29538;SDS011;16482;51.046;4.498;2023-01-25T05:58:53;5.75;;;5.25;;
29538;SDS011;16482;51.046;4.498;2023-01-25T06:01:19;5.95;;;5.35;;
29538;SDS011;16482;51.046;4.498;2023-01-25T06:03:46;5.47;;;4.97;;
29538;SDS011;16482;51.046;4.498;2023-01-25T06:06:12;7.72;;;7.03;;
29538;SDS011;16482;51.046;4.498;2023-01-25T06:08:38;6.40;;;5.80;;
29538;SDS011;16482;51.046;4.498;2023-01-25T06:11:08;6.05;;;5.50;;
29538;SDS011;16482;51.046;4.498;2023-01-25T06:13:35;6.20;;;5.53;;
29538;SDS011;16482;51.046;4.498;2023-01-25T06:16:01;6.20;;;5.60;;
29538;SDS011;16482;51.046;4.498;2023-01-25T06:18:30;6.90;;;5.78;;
29538;SDS011;16482;51.046;4.498;2023-01-25T06:21:00;6.35;;;5.55;;
29538;SDS011;16482;51.046;4.498;2023-01-25T06:23:27;5.97;;;5.47;;
29538;SDS011;16482;51.046;4.498;2023-01-25T06:25:59;6.00;;;5.40;;
29538;SDS011;16482;51.046;4.498;2023-01-25T06:28:30;6.50;;;5.88;;
29538;SDS011;16482;51.046;4.498;2023-01-25T06:31:02;5.90;;;5.30;;
29538;SDS011;16482;51.046;4.498;2023-01-25T06:33:30;6.40;;;5.80;;
29538;SDS011;16482;51.046;4.498;2023-01-25T06:36:15;6.40;;;5.10;;
29538;SDS011;16482;51.046;4.498;2023-01-25T06:38:42;7.47;;;5.25;;
29538;SDS011;16482;51.046;4.498;2023-01-25T06:41:11;7.03;;;5.75;;
29538;SDS011;16482;51.046;4.498;2023-01-25T06:43:37;6.45;;;5.05;;
29538;SDS011;16482;51.046;4.498;2023-01-25T06:46:04;7.93;;;5.40;;
29538;SDS011;16482;51.046;4.498;2023-01-25T06:48:32;5.75;;;5.15;;
29538;SDS011;16482;51.046;4.498;2023-01-25T06:51:06;9.70;;;5.53;;
29538;SDS011;16482;51.046;4.498;2023-01-25T06:53:34;5.80;;;5.10;;
29538;SDS011;16482;51.046;4.498;2023-01-25T06:56:09;6.28;;;4.93;;
29538;SDS011;16482;51.046;4.498;2023-01-25T06:58:42;5.93;;;4.80;;
29538;SDS011;16482;51.046;4.498;2023-01-25T07:03:51;5.20;;;4.65;;
29538;SDS011;16482;51.046;4.498;2023-01-25T07:06:18;5.50;;;4.35;;
29538;SDS011;16482;51.046;4.498;2023-01-25T07:08:45;5.75;;;5.25;;
29538;SDS011;16482;51.046;4.498;2023-01-25T07:11:11;6.57;;;5.13;;
29538;SDS011;16482;51.046;4.498;2023-01-25T07:13:38;5.40;;;4.82;;
29538;SDS011;16482;51.046;4.498;2023-01-25T07:16:06;5.00;;;4.50;;
29538;SDS011;16482;51.046;4.498;2023-01-25T07:18:35;5.43;;;4.93;;
29538;SDS011;16482;51.046;4.498;2023-01-25T07:21:09;4.90;;;4.47;;
29538;SDS011;16482;51.046;4.498;2023-01-25T07:23:39;5.70;;;5.20;;
29538;SDS011;16482;51.046;4.498;2023-01-25T07:26:19;5.75;;;4.90;;
29538;SDS011;16482;51.046;4.498;2023-01-25T07:28:49;6.05;;;4.60;;
29538;SDS011;16482;51.046;4.498;2023-01-25T07:31:17;6.50;;;4.43;;
29538;SDS011;16482;51.046;4.498;2023-01-25T07:33:53;5.00;;;4.50;;
29538;SDS011;16482;51.046;4.498;2023-01-25T07:36:20;5.13;;;4.72;;
29538;SDS011;16482;51.046;4.498;2023-01-25T07:38:47;8.02;;;4.75;;
29538;SDS011;16482;51.046;4.498;2023-01-25T07:41:13;8.32;;;4.63;;
29538;SDS011;16482;51.046;4.498;2023-01-25T07:43:40;6.00;;;4.47;;
29538;SDS011;16482;51.046;4.498;2023-01-25T07:46:10;5.80;;;5.18;;
29538;SDS011;16482;51.046;4.498;2023-01-25T07:48:37;5.10;;;4.70;;
29538;SDS011;16482;51.046;4.498;2023-01-25T07:51:06;5.40;;;4.85;;
29538;SDS011;16482;51.046;4.498;2023-01-25T07:53:40;5.22;;;4.72;;
29538;SDS011;16482;51.046;4.498;2023-01-25T07:56:08;5.57;;;5.07;;
29538;SDS011;16482;51.046;4.498;2023-01-25T07:58:35;5.60;;;5.05;;
29538;SDS011;16482;51.046;4.498;2023-01-25T08:01:20;5.05;;;4.63;;
29538;SDS011;16482;51.046;4.498;2023-01-25T08:03:48;4.80;;;4.25;;
29538;SDS011;16482;51.046;4.498;2023-01-25T08:06:14;4.88;;;4.43;;
29538;SDS011;16482;51.046;4.498;2023-01-25T08:08:42;5.55;;;4.82;;
29538;SDS011;16482;51.046;4.498;2023-01-25T08:11:14;6.50;;;4.82;;
29538;SDS011;16482;51.046;4.498;2023-01-25T08:13:47;5.35;;;4.72;;
29538;SDS011;16482;51.046;4.498;2023-01-25T08:16:18;5.43;;;4.90;;
29538;SDS011;16482;51.046;4.498;2023-01-25T08:18:48;5.25;;;4.57;;
29538;SDS011;16482;51.046;4.498;2023-01-25T08:21:17;5.57;;;5.07;;
29538;SDS011;16482;51.046;4.498;2023-01-25T08:23:43;5.88;;;5.28;;
29538;SDS011;16482;51.046;4.498;2023-01-25T08:26:10;5.82;;;5.32;;
29538;SDS011;16482;51.046;4.498;2023-01-25T08:28:38;5.68;;;5.18;;
29538;SDS011;16482;51.046;4.498;2023-01-25T08:31:11;5.30;;;4.70;;
29538;SDS011;16482;51.046;4.498;2023-01-25T08:33:39;6.10;;;5.50;;
29538;SDS011;16482;51.046;4.498;2023-01-25T08:36:10;5.32;;;4.82;;
29538;SDS011;16482;51.046;4.498;2023-01-25T08:38:37;5.60;;;5.10;;
29538;SDS011;16482;51.046;4.498;2023-01-25T08:41:04;5.93;;;5.43;;
29538;SDS011;16482;51.046;4.498;2023-01-25T08:43:37;6.30;;;5.70;;
29538;SDS011;16482;51.046;4.498;2023-01-25T08:46:03;6.57;;;5.97;;
29538;SDS011;16482;51.046;4.498;2023-01-25T08:48:30;6.80;;;5.45;;
29538;SDS011;16482;51.046;4.498;2023-01-25T08:50:59;6.32;;;5.72;;
29538;SDS011;16482;51.046;4.498;2023-01-25T08:53:31;6.43;;;5.68;;
29538;SDS011;16482;51.046;4.498;2023-01-25T08:56:04;6.15;;;5.60;;
29538;SDS011;16482;51.046;4.498;2023-01-25T08:58:32;6.55;;;5.95;;
29538;SDS011;16482;51.046;4.498;2023-01-25T09:01:04;6.35;;;5.75;;
29538;SDS011;16482;51.046;4.498;2023-01-25T09:03:33;7.15;;;6.45;;
29538;SDS011;16482;51.046;4.498;2023-01-25T09:06:00;7.40;;;6.70;;
29538;SDS011;16482;51.046;4.498;2023-01-25T09:08:34;8.00;;;6.22;;
29538;SDS011;16482;51.046;4.498;2023-01-25T09:11:04;7.15;;;6.50;;
29538;SDS011;16482;51.046;4.498;2023-01-25T09:13:32;7.95;;;7.15;;
29538;SDS011;16482;51.046;4.498;2023-01-25T09:16:00;7.30;;;6.63;;
29538;SDS011;16482;51.046;4.498;2023-01-25T09:18:30;8.27;;;7.47;;
29538;SDS011;16482;51.046;4.498;2023-01-25T09:21:07;8.13;;;7.32;;
29538;SDS011;16482;51.046;4.498;2023-01-25T09:23:38;8.20;;;7.40;;
29538;SDS011;16482;51.046;4.498;2023-01-25T09:26:04;8.25;;;7.45;;
29538;SDS011;16482;51.046;4.498;2023-01-25T09:28:31;7.95;;;7.18;;
29538;SDS011;16482;51.046;4.498;2023-01-25T09:31:01;7.97;;;7.28;;
29538;SDS011;16482;51.046;4.498;2023-01-25T09:33:35;8.27;;;7.53;;
29538;SDS011;16482;51.046;4.498;2023-01-25T09:36:02;8.70;;;7.90;;
29538;SDS011;16482;51.046;4.498;2023-01-25T09:38:31;9.00;;;8.10;;
29538;SDS011;16482;51.046;4.498;2023-01-25T09:55:18;8.65;;;7.85;;
29538;SDS011;16482;51.046;4.498;2023-01-25T09:57:46;9.45;;;8.55;;
29538;SDS011;16482;51.046;4.498;2023-01-25T10:05:46;10.02;;;9.07;;
29538;SDS011;16482;51.046;4.498;2023-01-25T10:11:27;10.27;;;9.27;;
29538;SDS011;16482;51.046;4.498;2023-01-25T10:13:57;10.82;;;9.82;;
29538;SDS011;16482;51.046;4.498;2023-01-25T10:22:10;11.18;;;10.13;;
29538;SDS011;16482;51.046;4.498;2023-01-25T10:25:05;11.48;;;10.38;;
29538;SDS011;16482;51.046;4.498;2023-01-25T10:36:15;11.00;;;9.90;;
29538;SDS011;16482;51.046;4.498;2023-01-25T10:38:45;11.07;;;9.98;;
29538;SDS011;16482;51.046;4.498;2023-01-25T10:41:35;10.98;;;9.98;;
29538;SDS011;16482;51.046;4.498;2023-01-25T10:44:07;11.35;;;10.25;;
29538;SDS011;16482;51.046;4.498;2023-01-25T10:46:54;11.93;;;10.77;;
29538;SDS011;16482;51.046;4.498;2023-01-25T10:52:25;12.50;;;11.30;;
29538;SDS011;16482;51.046;4.498;2023-01-25T10:57:48;12.27;;;11.10;;
29538;SDS011;16482;51.046;4.498;2023-01-25T11:00:27;12.30;;;11.10;;
29538;SDS011;16482;51.046;4.498;2023-01-25T11:02:59;12.85;;;11.65;;
29538;SDS011;16482;51.046;4.498;2023-01-25T11:05:27;12.10;;;10.90;;
29538;SDS011;16482;51.046;4.498;2023-01-25T11:10:45;11.45;;;10.40;;
29538;SDS011;16482;51.046;4.498;2023-01-25T11:15:46;12.93;;;11.63;;
29538;SDS011;16482;51.046;4.498;2023-01-25T11:18:21;12.63;;;11.32;;
29538;SDS011;16482;51.046;4.498;2023-01-25T11:21:12;13.13;;;11.75;;
29538;SDS011;16482;51.046;4.498;2023-01-25T11:23:42;13.07;;;11.77;;
29538;SDS011;16482;51.046;4.498;2023-01-25T11:26:27;12.93;;;11.73;;
29538;SDS011;16482;51.046;4.498;2023-01-25T11:29:09;12.95;;;11.65;;
29538;SDS011;16482;51.046;4.498;2023-01-25T11:31:35;13.35;;;11.95;;
29538;SDS011;16482;51.046;4.498;2023-01-25T11:34:02;13.90;;;12.50;;
29538;SDS011;16482;51.046;4.498;2023-01-25T11:36:36;13.05;;;11.75;;
29538;SDS011;16482;51.046;4.498;2023-01-25T11:39:20;13.95;;;12.15;;
29538;SDS011;16482;51.046;4.498;2023-01-25T11:42:22;13.20;;;11.95;;
29538;SDS011;16482;51.046;4.498;2023-01-25T11:45:13;13.57;;;12.32;;
29538;SDS011;16482;51.046;4.498;2023-01-25T11:47:50;13.88;;;12.48;;
29538;SDS011;16482;51.046;4.498;2023-01-25T11:50:35;14.25;;;12.82;;
29538;SDS011;16482;51.046;4.498;2023-01-25T11:53:18;13.52;;;12.23;;
29538;SDS011;16482;51.046;4.498;2023-01-25T12:06:54;13.02;;;11.73;;
29538;SDS011;16482;51.046;4.498;2023-01-25T12:12:15;13.45;;;12.15;;
29538;SDS011;16482;51.046;4.498;2023-01-25T12:23:11;14.18;;;12.82;;
29538;SDS011;16482;51.046;4.498;2023-01-25T12:28:35;13.27;;;11.98;;
29538;SDS011;16482;51.046;4.498;2023-01-25T12:31:09;13.68;;;12.27;;
29538;SDS011;16482;51.046;4.498;2023-01-25T12:33:42;13.40;;;12.10;;
29538;SDS011;16482;51.046;4.498;2023-01-25T12:44:25;13.75;;;12.35;;
29538;SDS011;16482;51.046;4.498;2023-01-25T12:47:06;15.52;;;12.90;;
29538;SDS011;16482;51.046;4.498;2023-01-25T12:49:43;12.98;;;11.60;;
29538;SDS011;16482;51.046;4.498;2023-01-25T12:52:26;13.60;;;12.30;;
29538;SDS011;16482;51.046;4.498;2023-01-25T12:55:14;13.38;;;12.10;;
29538;SDS011;16482;51.046;4.498;2023-01-25T13:06:21;13.95;;;12.60;;
29538;SDS011;16482;51.046;4.498;2023-01-25T13:09:00;12.82;;;11.63;;
29538;SDS011;16482;51.046;4.498;2023-01-25T13:11:30;12.38;;;11.25;;
29538;SDS011;16482;51.046;4.498;2023-01-25T13:17:11;12.80;;;11.50;;
29538;SDS011;16482;51.046;4.498;2023-01-25T13:19:47;13.35;;;11.95;;
29538;SDS011;16482;51.046;4.498;2023-01-25T13:27:41;12.45;;;11.25;;
29538;SDS011;16482;51.046;4.498;2023-01-25T13:40:35;13.20;;;11.90;;
29538;SDS011;16482;51.046;4.498;2023-01-25T13:45:42;12.57;;;11.25;;
29538;SDS011;16482;51.046;4.498;2023-01-25T13:48:12;13.30;;;12.00;;
29538;SDS011;16482;51.046;4.498;2023-01-25T13:50:44;13.40;;;12.00;;
29538;SDS011;16482;51.046;4.498;2023-01-25T13:55:40;12.52;;;11.32;;
29538;SDS011;16482;51.046;4.498;2023-01-25T14:03:39;12.37;;;11.10;;
29538;SDS011;16482;51.046;4.498;2023-01-25T14:06:21;12.50;;;11.23;;
29538;SDS011;16482;51.046;4.498;2023-01-25T14:09:05;12.52;;;11.32;;
29538;SDS011;16482;51.046;4.498;2023-01-25T14:11:59;12.57;;;11.35;;
29538;SDS011;16482;51.046;4.498;2023-01-25T14:14:27;12.48;;;11.27;;
29538;SDS011;16482;51.046;4.498;2023-01-25T14:17:12;13.68;;;12.27;;
29538;SDS011;16482;51.046;4.498;2023-01-25T14:19:39;13.30;;;11.90;;
29538;SDS011;16482;51.046;4.498;2023-01-25T14:22:17;12.77;;;11.30;;
29538;SDS011;16482;51.046;4.498;2023-01-25T14:25:02;11.82;;;10.68;;
29538;SDS011;16482;51.046;4.498;2023-01-25T14:27:46;12.43;;;11.23;;
29538;SDS011;16482;51.046;4.498;2023-01-25T14:32:44;13.50;;;12.10;;
29538;SDS011;16482;51.046;4.498;2023-01-25T14:37:54;12.90;;;11.60;;
29538;SDS011;16482;51.046;4.498;2023-01-25T14:40:21;14.10;;;12.70;;
29538;SDS011;16482;51.046;4.498;2023-01-25T14:42:50;13.57;;;12.27;;
29538;SDS011;16482;51.046;4.498;2023-01-25T14:45:18;13.18;;;11.88;;
29538;SDS011;16482;51.046;4.498;2023-01-25T14:47:48;13.45;;;12.15;;
29538;SDS011;16482;51.046;4.498;2023-01-25T14:53:18;13.52;;;12.18;;
29538;SDS011;16482;51.046;4.498;2023-01-25T14:55:46;14.70;;;12.10;;
29538;SDS011;16482;51.046;4.498;2023-01-25T14:58:17;14.13;;;11.52;;
29538;SDS011;16482;51.046;4.498;2023-01-25T15:01:04;12.65;;;11.38;;
29538;SDS011;16482;51.046;4.498;2023-01-25T15:03:30;11.90;;;10.73;;
29538;SDS011;16482;51.046;4.498;2023-01-25T15:06:05;10.18;;;9.18;;
29538;SDS011;16482;51.046;4.498;2023-01-25T15:08:37;9.57;;;8.70;;
29538;SDS011;16482;51.046;4.498;2023-01-25T15:11:04;9.80;;;8.10;;
29538;SDS011;16482;51.046;4.498;2023-01-25T15:13:50;10.35;;;9.10;;
29538;SDS011;16482;51.046;4.498;2023-01-25T15:16:32;8.90;;;8.10;;
29538;SDS011;16482;51.046;4.498;2023-01-25T15:18:59;8.80;;;7.95;;
29538;SDS011;16482;51.046;4.498;2023-01-25T15:21:26;8.80;;;8.00;;
29538;SDS011;16482;51.046;4.498;2023-01-25T15:23:57;9.05;;;8.15;;
29538;SDS011;16482;51.046;4.498;2023-01-25T15:26:29;9.55;;;8.55;;
29538;SDS011;16482;51.046;4.498;2023-01-25T15:29:13;9.38;;;8.38;;
29538;SDS011;16482;51.046;4.498;2023-01-25T15:31:49;9.32;;;8.32;;
29538;SDS011;16482;51.046;4.498;2023-01-25T15:34:20;10.40;;;8.43;;
29538;SDS011;16482;51.046;4.498;2023-01-25T15:36:53;8.68;;;7.78;;
29538;SDS011;16482;51.046;4.498;2023-01-25T15:39:19;8.85;;;7.95;;
29538;SDS011;16482;51.046;4.498;2023-01-25T15:41:54;8.38;;;7.53;;
29538;SDS011;16482;51.046;4.498;2023-01-25T15:44:20;9.32;;;8.43;;
29538;SDS011;16482;51.046;4.498;2023-01-25T15:46:54;8.50;;;7.68;;
29538;SDS011;16482;51.046;4.498;2023-01-25T15:49:22;9.05;;;7.60;;
29538;SDS011;16482;51.046;4.498;2023-01-25T15:51:51;8.50;;;7.60;;
29538;SDS011;16482;51.046;4.498;2023-01-25T15:54:19;10.30;;;8.50;;
29538;SDS011;16482;51.046;4.498;2023-01-25T15:56:53;8.68;;;7.88;;
29538;SDS011;16482;51.046;4.498;2023-01-25T15:59:22;8.20;;;7.40;;
29538;SDS011;16482;51.046;4.498;2023-01-25T16:01:49;8.60;;;7.80;;
29538;SDS011;16482;51.046;4.498;2023-01-25T16:04:22;8.68;;;7.88;;
29538;SDS011;16482;51.046;4.498;2023-01-25T16:06:50;8.68;;;7.78;;
29538;SDS011;16482;51.046;4.498;2023-01-25T16:11:54;8.35;;;7.43;;
29538;SDS011;16482;51.046;4.498;2023-01-25T16:14:22;8.48;;;7.68;;
29538;SDS011;16482;51.046;4.498;2023-01-25T16:16:53;8.18;;;7.38;;
29538;SDS011;16482;51.046;4.498;2023-01-25T16:19:21;8.23;;;7.50;;
29538;SDS011;16482;51.046;4.498;2023-01-25T16:21:48;8.20;;;7.40;;
29538;SDS011;16482;51.046;4.498;2023-01-25T16:24:21;8.48;;;7.68;;
29538;SDS011;16482;51.046;4.498;2023-01-25T16:26:50;9.35;;;7.90;;
29538;SDS011;16482;51.046;4.498;2023-01-25T16:29:20;8.93;;;8.02;;
29538;SDS011;16482;51.046;4.498;2023-01-25T16:31:54;8.18;;;7.40;;
29538;SDS011;16482;51.046;4.498;2023-01-25T16:34:23;8.20;;;7.38;;
29538;SDS011;16482;51.046;4.498;2023-01-25T16:36:52;8.38;;;7.57;;
29538;SDS011;16482;51.046;4.498;2023-01-25T16:39:25;8.68;;;7.80;;
29538;SDS011;16482;51.046;4.498;2023-01-25T16:41:52;8.75;;;7.88;;
29538;SDS011;16482;51.046;4.498;2023-01-25T16:44:22;8.70;;;7.90;;
29538;SDS011;16482;51.046;4.498;2023-01-25T16:46:57;8.48;;;7.70;;
29538;SDS011;16482;51.046;4.498;2023-01-25T16:49:23;9.18;;;8.25;;
29538;SDS011;16482;51.046;4.498;2023-01-25T16:51:55;8.50;;;7.70;;
29538;SDS011;16482;51.046;4.498;2023-01-25T16:54:22;9.60;;;8.60;;
29538;SDS011;16482;51.046;4.498;2023-01-25T16:56:52;8.93;;;8.07;;
29538;SDS011;16482;51.046;4.498;2023-01-25T16:59:26;10.00;;;8.45;;
29538;SDS011;16482;51.046;4.498;2023-01-25T17:01:52;9.13;;;8.23;;
29538;SDS011;16482;51.046;4.498;2023-01-25T17:04:20;9.07;;;8.27;;
29538;SDS011;16482;51.046;4.498;2023-01-25T17:06:55;10.32;;;9.32;;
29538;SDS011;16482;51.046;4.498;2023-01-25T17:09:22;9.57;;;8.63;;
29538;SDS011;16482;51.046;4.498;2023-01-25T17:11:51;10.05;;;9.15;;
29538;SDS011;16482;51.046;4.498;2023-01-25T17:14:25;11.07;;;9.98;;
29538;SDS011;16482;51.046;4.498;2023-01-25T17:16:51;9.75;;;8.85;;
29538;SDS011;16482;51.046;4.498;2023-01-25T17:19:35;10.48;;;9.38;;
29538;SDS011;16482;51.046;4.498;2023-01-25T17:22:01;10.27;;;9.27;;
29538;SDS011;16482;51.046;4.498;2023-01-25T17:24:27;10.00;;;9.10;;
29538;SDS011;16482;51.046;4.498;2023-01-25T17:26:54;10.93;;;9.65;;
29538;SDS011;16482;51.046;4.498;2023-01-25T17:29:24;11.13;;;9.95;;